Flight Track Log - Related Links

Times and Time Zones

All times are in EDT time to prevent confusion due to time zone crossing. See the C-FLPU flight status page for this flight to view local times or setup timezone preferences in your user account.

Time Position Orientation Groundspeed Altitude Reporting Facility
EDT Latitude Longitude Course Direction KTS MPH feet Rate Location/Type
Wed 05:07:00 PM 53.6298 -100.9651 165° South  Level Estimated
Wed 05:08:00 PM 53.5958 -100.9543 169° South  Level FlightAware Approximate
Wed 05:09:00 PM 53.5617 -100.9435 169° South  Level FlightAware Approximate
Wed 05:10:00 PM 53.5277 -100.9328 169° South  Level FlightAware Approximate
Wed 05:11:00 PM 53.4936 -100.9221 169° South  Level FlightAware Approximate
Wed 05:12:00 PM 53.4596 -100.9114 169° South  Level FlightAware Approximate
Wed 05:13:00 PM 53.4255 -100.9007 169° South  Level FlightAware Approximate
Wed 05:14:00 PM 53.3915 -100.8900 169° South  Level FlightAware Approximate
Wed 05:15:00 PM 53.3574 -100.8793 169° South  Level FlightAware Approximate
Wed 05:16:00 PM 53.3233 -100.8687 169° South  Level FlightAware Approximate
Wed 05:17:00 PM 53.2893 -100.8581 169° South  Level FlightAware Approximate
Wed 05:18:00 PM 53.2552 -100.8475 169° South  Level FlightAware Approximate
Wed 05:19:00 PM 53.2212 -100.8369 169° South  Level FlightAware Approximate
Wed 05:20:00 PM 53.1871 -100.8263 169° South  Level FlightAware Approximate
Wed 05:21:00 PM 53.1530 -100.8158 169° South  Level FlightAware Approximate
Wed 05:22:00 PM 53.1190 -100.8052 169° South  Level FlightAware Approximate
Wed 05:23:00 PM 53.0849 -100.7947 169° South  Level FlightAware Approximate
Wed 05:24:00 PM 53.0508 -100.7842 169° South  Level FlightAware Approximate
Wed 05:25:00 PM 53.0168 -100.7737 170° South  Level FlightAware Approximate
Wed 05:26:00 PM 52.9827 -100.7633 170° South  Level FlightAware Approximate
Wed 05:27:00 PM 52.9486 -100.7528 170° South  Level FlightAware Approximate
Wed 05:28:00 PM 52.9146 -100.7423 170° South  Level FlightAware Approximate
Wed 05:29:00 PM 52.8805 -100.7319 170° South  Level FlightAware Approximate
Wed 05:30:00 PM 52.8464 -100.7215 170° South  Level FlightAware Approximate
Wed 05:31:00 PM 52.8123 -100.7111 170° South  Level FlightAware Approximate
Wed 05:32:00 PM 52.7783 -100.7008 170° South  Level FlightAware Approximate
Wed 05:33:00 PM 52.7442 -100.6904 170° South  Level FlightAware Approximate
Wed 05:34:00 PM 52.7101 -100.6801 170° South  Level FlightAware Approximate
Wed 05:35:00 PM 52.6760 -100.6697 170° South  Level FlightAware Approximate
Wed 05:36:00 PM 52.6419 -100.6594 170° South  Level FlightAware Approximate
Wed 05:37:00 PM 52.6079 -100.6491 170° South  Level FlightAware Approximate
Wed 05:38:00 PM 52.5738 -100.6389 170° South  Level FlightAware Approximate
Wed 05:39:00 PM 52.5397 -100.6286 170° South  Level FlightAware Approximate
Wed 05:40:00 PM 52.5146 -100.5894 166° South  Level Estimated
Wed 05:41:00 PM 52.4809 -100.5761 167° South  Level FlightAware Approximate
Wed 05:42:00 PM 52.4472 -100.5629 167° South  Level FlightAware Approximate
Wed 05:43:00 PM 52.4135 -100.5496 167° South  Level FlightAware Approximate
Wed 05:44:00 PM 52.3798 -100.5364 167° South  Level FlightAware Approximate
Wed 05:45:00 PM 52.3461 -100.5233 167° South  Level FlightAware Approximate
Wed 05:46:00 PM 52.3124 -100.5101 167° South  Level FlightAware Approximate
Wed 05:47:00 PM 52.2787 -100.4970 167° South  Level FlightAware Approximate
Wed 05:48:00 PM 52.2450 -100.4838 167° South  Level FlightAware Approximate
Wed 05:49:00 PM 52.2113 -100.4707 167° South  Level FlightAware Approximate
Wed 05:50:00 PM 52.1776 -100.4577 167° South  Level FlightAware Approximate
Wed 05:51:00 PM 52.1439 -100.4446 167° South  Level FlightAware Approximate
Wed 05:52:00 PM 52.1102 -100.4316 167° South  Level FlightAware Approximate
Wed 05:53:00 PM 52.0765 -100.4185 167° South  Level FlightAware Approximate
Wed 05:54:00 PM 52.0428 -100.4055 167° South  Level FlightAware Approximate
Wed 05:55:00 PM 52.0090 -100.3926 167° South  Level FlightAware Approximate
Wed 05:56:00 PM 51.9753 -100.3796 167° South  Level FlightAware Approximate
Wed 05:57:00 PM 51.9416 -100.3667 167° South  Level FlightAware Approximate
Wed 05:58:00 PM 51.9079 -100.3537 167° South  Level FlightAware Approximate
Wed 05:59:00 PM 51.8742 -100.3408 167° South  Level FlightAware Approximate
Wed 06:00:00 PM 51.8404 -100.3280 167° South  Level FlightAware Approximate
Wed 06:01:00 PM 51.8067 -100.3151 167° South  Level FlightAware Approximate
Wed 06:02:00 PM 51.7730 -100.3023 167° South  Level FlightAware Approximate
Wed 06:03:00 PM 51.7393 -100.2894 167° South  Level FlightAware Approximate
Wed 06:04:00 PM 51.7055 -100.2766 167° South  Level FlightAware Approximate
Wed 06:05:00 PM 51.6718 -100.2638 167° South  Level FlightAware Approximate
Wed 06:06:00 PM 51.6381 -100.2511 167° South  Level FlightAware Approximate
Wed 06:07:00 PM 51.6044 -100.2383 167° South  Level FlightAware Approximate
Wed 06:08:00 PM 51.5706 -100.2256 167° South  Level FlightAware Approximate
Wed 06:09:00 PM 51.5369 -100.2129 167° South  Level FlightAware Approximate
Wed 06:10:00 PM 51.5032 -100.2002 167° South  Level FlightAware Approximate
Wed 06:11:00 PM 51.4694 -100.1875 167° South  Level FlightAware Approximate
Wed 06:12:00 PM 51.4357 -100.1749 167° South  Level FlightAware Approximate
Wed 06:13:00 PM 51.4019 -100.1622 167° South  Level FlightAware Approximate
Wed 06:14:00 PM 51.3682 -100.1496 167° South  Level FlightAware Approximate
Wed 06:15:00 PM 51.3344 -100.1370 167° South  Level FlightAware Approximate
Wed 06:16:00 PM 51.3007 -100.1244 167° South  Level FlightAware Approximate
Wed 06:17:00 PM 51.2670 -100.1119 167° South  Level FlightAware Approximate
Wed 06:18:00 PM 51.2332 -100.0993 167° South  Level FlightAware Approximate
Wed 06:19:00 PM 51.1995 -100.0868 167° South  Level FlightAware Approximate
Wed 06:20:00 PM 51.1657 -100.0743 167° South  Level FlightAware Approximate
Wed 06:21:00 PM 51.1491 -100.0258 128° Southeast  Level Estimated
Wed 06:22:00 PM 51.1263 -99.9842 131° Southeast  Level FlightAware Approximate
Wed 06:23:00 PM 51.1036 -99.9426 131° Southeast  Level FlightAware Approximate
Wed 06:23:12 PM 51.2833 -100.1500 131° Southeast 110 127 7,100  Level Winnipeg Center
Wed 06:24:00 PM 51.0808 -99.9010 131° Southeast  Level FlightAware Approximate
Wed 06:24:46 PM 51.2333 -100.1167 157° South 110 127 7,100  Level Winnipeg Center
Wed 06:25:00 PM 51.0580 -99.8594 131° Southeast  Level FlightAware Approximate
Wed 06:25:46 PM 51.2000 -100.1167 180° South 120 138 7,100  Level Winnipeg Center
Wed 06:26:00 PM 51.0352 -99.8179 131° Southeast  Level FlightAware Approximate
Wed 06:27:00 PM 51.0124 -99.7765 131° Southeast  Level FlightAware Approximate
Wed 06:27:27 PM 51.1500 -100.0833 157° South 120 138 7,100  Level Winnipeg Center
Wed 06:28:00 PM 50.9896 -99.7350 131° Southeast  Level FlightAware Approximate
Wed 06:28:27 PM 51.1167 -100.0500 148° Southeast 120 138 7,100  Level Winnipeg Center
Wed 06:29:27 PM 51.0833 -100.0333 163° South 120 138 7,100  Level Winnipeg Center
Wed 06:30:27 PM 51.0667 -100.0000 128° Southeast 110 127 7,100 -50 Level Winnipeg Center
Wed 06:31:27 PM 51.0500 -99.9500 118° Southeast 110 127 7,000 -50 Descending Winnipeg Center
Wed 06:32:27 PM 51.0333 -99.9167 128° Southeast 120 138 7,000 -50 Level Winnipeg Center
Wed 06:33:27 PM 51.0167 -99.8667 118° Southeast 120 138 6,900  Descending Winnipeg Center
Wed 06:34:27 PM 50.9833 -99.8333 148° Southeast 120 138 7,000 50 Climbing Winnipeg Center
Wed 06:35:27 PM 50.9667 -99.7833 118° Southeast 120 138 7,000  Level Winnipeg Center
Wed 06:36:27 PM 50.9500 -99.7500 128° Southeast 120 138 7,000  Level Winnipeg Center
Wed 06:37:27 PM 50.9333 -99.7000 118° Southeast 120 138 7,000  Level Winnipeg Center
Wed 06:38:27 PM 50.9000 -99.6667 148° Southeast 120 138 7,000 50 Level Winnipeg Center
Wed 06:39:27 PM 50.8833 -99.6167 118° Southeast 120 138 7,100  Climbing Winnipeg Center
Wed 06:40:27 PM 50.8667 -99.5833 128° Southeast 120 138 7,000 -50 Descending Winnipeg Center
Wed 06:41:27 PM 50.8333 -99.5333 137° Southeast 120 138 7,000  Level Winnipeg Center
Wed 06:42:27 PM 50.8167 -99.5167 148° Southeast 120 138 7,000  Level Winnipeg Center
Wed 06:43:27 PM 50.7833 -99.4833 148° Southeast 120 138 7,000  Level Winnipeg Center
Wed 06:44:27 PM 50.7667 -99.4333 118° Southeast 120 138 7,000  Level Winnipeg Center
Wed 06:45:27 PM 50.7500 -99.4000 128° Southeast 120 138 7,000  Level Winnipeg Center
Wed 06:46:27 PM 50.7500 -99.3500 90° East 120 138 7,000  Level Winnipeg Center
Wed 06:47:27 PM 50.7167 -99.3167 148° Southeast 120 138 7,000 50 Level Winnipeg Center
Wed 06:48:27 PM 50.7000 -99.2667 118° Southeast 120 138 7,100 50 Climbing Winnipeg Center
Wed 06:49:27 PM 50.6833 -99.2333 128° Southeast 120 138 7,100  Level Winnipeg Center
Wed 06:50:27 PM 50.6500 -99.2167 162° South 120 138 7,100  Level Winnipeg Center
Wed 06:51:27 PM 50.6167 -99.1500 128° Southeast 120 138 7,100  Level Winnipeg Center
Wed 06:52:27 PM 50.6000 -99.1333 148° Southeast 120 138 7,100  Level Winnipeg Center
Wed 06:53:27 PM 50.5833 -99.1000 128° Southeast 120 138 7,100  Level Winnipeg Center
Wed 06:54:27 PM 50.5500 -99.0500 136° Southeast 120 138 7,100 50 Level Winnipeg Center
Wed 06:55:27 PM 50.5333 -99.0000 118° Southeast 110 127 7,200 50 Climbing Winnipeg Center
Wed 06:56:27 PM 50.5167 -98.9667 128° Southeast 120 138 7,200 -50 Level Winnipeg Center
Wed 06:57:27 PM 50.5000 -98.9167 118° Southeast 120 138 7,100  Descending Winnipeg Center
Wed 06:58:27 PM 50.4667 -98.8833 148° Southeast 120 138 7,200 50 Climbing Winnipeg Center
Wed 06:59:27 PM 50.4500 -98.8333 118° Southeast 120 138 7,200 -50 Level Winnipeg Center
Wed 07:00:27 PM 50.4333 -98.7833 118° Southeast 120 138 7,100 -50 Descending Winnipeg Center
Wed 07:01:27 PM 50.4167 -98.7500 128° Southeast 120 138 7,100  Level Winnipeg Center
Wed 07:02:27 PM 50.4000 -98.7000 118° Southeast 120 138 7,100 50 Level Winnipeg Center
Wed 07:03:27 PM 50.3667 -98.6667 147° Southeast 120 138 7,200  Climbing Winnipeg Center
Wed 07:04:27 PM 50.3333 -98.6500 162° South 120 138 7,100 -50 Descending Winnipeg Center
Wed 07:05:27 PM 50.3167 -98.5833 111° Southeast 130 150 7,100  Level Winnipeg Center
Wed 07:06:27 PM 50.2833 -98.5667 162° South 130 150 7,100 50 Level Winnipeg Center
Wed 07:07:27 PM 50.2667 -98.5333 128° Southeast 120 138 7,200 -50 Climbing Winnipeg Center
Wed 07:08:27 PM 50.2333 -98.4833 136° Southeast 120 138 7,000 -50 Descending Winnipeg Center
Wed 07:09:27 PM 50.2167 -98.4333 118° Southeast 120 138 7,100  Climbing Winnipeg Center
Wed 07:10:27 PM 50.2167 -98.3833 90° East 120 138 7,000 -50 Descending Winnipeg Center
Wed 07:11:27 PM 50.2167 -98.3333 90° East 120 138 7,000  Level Winnipeg Center
Wed 07:12:27 PM 50.2000 -98.2667 111° Southeast 120 138 7,000  Level Winnipeg Center
Wed 07:14:27 PM 50.2000 -98.1667 90° East 120 138 7,000  Level Winnipeg Center
Wed 07:15:27 PM 50.2000 -98.1500 90° East 120 138 7,000  Level Winnipeg Center
Wed 07:16:27 PM 50.2000 -98.0833 90° East 120 138 7,000  Level Winnipeg Center
Wed 07:17:27 PM 50.2000 -98.0333 90° East 120 138 7,000  Level Winnipeg Center
Wed 07:18:27 PM 50.1833 -97.9833 117° Southeast 120 138 7,000 -350 Level Winnipeg Center
Wed 07:19:27 PM 50.1833 -97.9333 90° East 130 150 6,300 -600 Descending Winnipeg Center
Wed 07:20:27 PM 50.1667 -97.8833 117° Southeast 110 127 5,800 -450 Descending Winnipeg Center
Wed 07:21:27 PM 50.1667 -97.8333 90° East 110 127 5,400 -350 Descending Winnipeg Center
Wed 07:22:27 PM 50.1667 -97.7833 90° East 110 127 5,100 -200 Descending Winnipeg Center
Wed 07:23:27 PM 50.1667 -97.7167 90° East 110 127 5,000 -50 Descending Winnipeg Center
Wed 07:24:27 PM 50.1667 -97.6667 90° East 110 127 5,000 -100 Level Winnipeg Center
Wed 07:25:27 PM 50.1500 -97.6500 147° Southeast 120 138 4,800 -300 Descending Winnipeg Center
Wed 07:26:27 PM 50.1500 -97.6000 90° East 120 138 4,400 -450 Descending Winnipeg Center
Wed 07:27:27 PM 50.1333 -97.5333 111° Southeast 120 138 3,900 -450 Descending Winnipeg Center
Wed 07:28:27 PM 50.1333 -97.4833 90° East 130 150 3,500 -400 Descending Winnipeg Center
Wed 07:29:27 PM 50.1167 -97.4333 117° Southeast 120 138 3,100 -250 Descending Winnipeg Center
Wed 07:30:27 PM 50.1167 -97.3833 90° East 110 127 3,000  Descending Winnipeg Center
Wed 07:31:27 PM 50.1000 -97.3333 117° Southeast 120 138 3,100  Climbing Winnipeg Center
Wed 07:32:27 PM 50.1000 -97.2833 90° East 110 127 3,000 -150 Descending Winnipeg Center
Wed 07:33:27 PM 50.0833 -97.2333 117° Southeast 110 127 2,800 -300 Descending Winnipeg Center
Wed 07:34:27 PM 50.0833 -97.1667 90° East 120 138 2,400 -350 Descending Winnipeg Center
Wed 07:35:27 PM 50.0667 -97.1500 147° Southeast 110 127 2,100 -400 Descending Winnipeg Center
Wed 07:36:27 PM 50.0667 -97.1000 90° East 110 127 1,600 -300 Descending Winnipeg Center
Wed 07:37:27 PM 50.0500 -97.0667 128° Southeast 90 104 1,500 -200 Descending Winnipeg Center
Wed 07:38:27 PM 50.0333 -97.0500 147° Southeast 80 92 1,200 -350 Descending Winnipeg Center
Wed 07:39:27 PM 50.0333 -97.0167 90° East 60 69 800 -400 Descending Winnipeg Center

Login

Don't have an account? Register now (free) for customized features, flight alerts, and more!